createdAt,value
2019-05-29T00:00:03.378Z,10.7
2019-05-29T00:15:03.306Z,10.6
2019-05-29T00:30:03.042Z,10.5
2019-05-29T00:45:02.572Z,10.4
2019-05-29T01:00:02.845Z,10.4
2019-05-29T01:15:03.084Z,10.3
2019-05-29T01:30:02.452Z,10.3
2019-05-29T01:45:07.506Z,10.2
2019-05-29T02:00:03.129Z,10.2
2019-05-29T02:15:02.710Z,10.2
2019-05-29T02:30:02.546Z,10.2
2019-05-29T02:45:02.896Z,10.2
2019-05-29T03:00:03.211Z,10.2
2019-05-29T03:15:02.576Z,10.2
2019-05-29T03:30:03.191Z,10.2
2019-05-29T03:45:02.506Z,10.2
2019-05-29T04:00:02.824Z,10.3
2019-05-29T04:15:03.107Z,10.4
2019-05-29T04:30:02.582Z,10.6
2019-05-29T04:45:02.902Z,10.8
2019-05-29T05:00:02.504Z,10.9
2019-05-29T05:15:02.812Z,11
2019-05-29T05:30:03.387Z,11.2
2019-05-29T05:45:02.691Z,11.4
2019-05-29T06:00:03.076Z,11.2
2019-05-29T06:15:03.370Z,11.4
2019-05-29T06:30:03.583Z,11.4
2019-05-29T06:45:03.506Z,11.6
2019-05-29T07:00:02.809Z,11.8
2019-05-29T07:15:03.096Z,11.8
2019-05-29T07:30:02.508Z,11.9
2019-05-29T07:45:02.848Z,12.1
2019-05-29T08:00:03.089Z,12.4
2019-05-29T08:15:03.486Z,12.4
2019-05-29T08:30:02.900Z,12.9
2019-05-29T08:45:03.246Z,13.1
2019-05-29T09:00:03.446Z,13.3
2019-05-29T09:15:03.067Z,13.1
2019-05-29T09:30:03.060Z,13.6
2019-05-29T09:45:02.560Z,13.6
2019-05-29T10:00:04.149Z,13.2
2019-05-29T10:15:04.381Z,13.7
2019-05-29T10:30:02.904Z,14.1
2019-05-29T10:45:03.214Z,14.7
2019-05-29T11:00:02.751Z,14.6
2019-05-29T11:15:17.681Z,14
2019-05-29T11:30:02.516Z,13.8
2019-05-29T11:45:03.768Z,13.6
2019-05-29T12:00:13.930Z,12.6
2019-05-29T12:15:10.784Z,11.9
2019-05-29T12:30:03.245Z,12
2019-05-29T12:45:04.236Z,12
2019-05-29T13:00:04.273Z,12.3
2019-05-29T13:15:03.638Z,12.2
2019-05-29T13:30:04.825Z,12.2
2019-05-29T13:45:10.927Z,11.2
2019-05-29T14:00:10.458Z,11.3
2019-05-29T14:15:02.659Z,11.6
2019-05-29T14:30:03.819Z,11.6
2019-05-29T14:45:03.950Z,11.3
2019-05-29T15:00:06.628Z,11.4
2019-05-29T15:15:04.699Z,11.3
2019-05-29T15:30:03.408Z,11.4
2019-05-29T15:45:03.305Z,11.6
2019-05-29T16:00:03.241Z,11.6
2019-05-29T16:15:02.659Z,11.8
2019-05-29T16:30:03.034Z,11.9
2019-05-29T16:45:03.393Z,11.6
2019-05-29T17:00:02.685Z,11.6
2019-05-29T17:15:02.985Z,11.4
2019-05-29T17:30:03.437Z,11.3
2019-05-29T17:45:02.919Z,11.3
2019-05-29T18:00:03.056Z,11.3
2019-05-29T18:15:03.380Z,11.2
2019-05-29T18:30:02.744Z,11.1
2019-05-29T18:45:03.246Z,10.9
2019-05-29T19:00:02.681Z,10.9
2019-05-29T19:15:02.912Z,10.8
2019-05-29T19:30:03.234Z,10.8
2019-05-29T19:45:02.492Z,10.7
2019-05-29T20:00:02.811Z,10.8
2019-05-29T20:15:03.130Z,10.8
2019-05-29T20:30:03.293Z,10.8
2019-05-29T20:45:02.814Z,10.8
2019-05-29T21:00:03.084Z,10.8
2019-05-29T21:15:03.402Z,10.7
2019-05-29T21:30:02.741Z,10.8
2019-05-29T21:45:03.067Z,10.6
2019-05-29T22:00:03.314Z,10.6
2019-05-29T22:15:03.564Z,10.6
2019-05-29T22:30:03.056Z,10.6
2019-05-29T22:45:03.380Z,10.6
2019-05-29T23:00:02.748Z,10.5
2019-05-29T23:15:03.063Z,10.4
2019-05-29T23:30:03.482Z,10.3
2019-05-29T23:45:03.729Z,10.2
